< < Back
Terminal Aerodrome Forecast


Current Version              Previous Versions:   1  2  3  4  5  6  7  8  9  

Terminal Aerodrome Forecast

069
FTUS42 KILM 231700
TAFFLO
TAF
KFLO 231720Z 2318/2418 12010KT 2SM -RA BR BKN006 OVC012
     FM240000 17012KT 3SM -RA BR SCT004 BKN008 OVC012
      TEMPO 2400/2404 20015G25KT 2SM +SHRA BKN012
     FM240600 21012KT 4SM BR VCSH BKN006
     FM241100 22012G17KT 3SM BR BKN006=

Latest METAR

630
SAUS70 KWBC 232100 RRQ
MTRFLO
METAR KFLO 232053Z 13012G20KT 10SM -RA BKN009 OVC027 18/17 A2992 RMK AO2
SLP130 P0001 60011 T01780167 58025


USA.gov is the U.S. government's official web portal to all federal, state and local government web resources and services.